Time;durP1;ratioP1;P1;durP2;ratioP2;P2;SDS_P1;SDS_P2;PMS_P1;PMS_P2;Temp;Humidity;BMP_temperature;BMP_pressure;BME280_temperature;BME280_humidity;BME280_pressure;Samples;Min_cycle;Max_cycle;Signal;HPM_P1;HPM_P2
2023/03/01 00:00:26;;;;;;;;;;;;;;;-0.20;61.58;103083.81;5050119;28;19924;-61
2023/03/01 00:02:52;;;;;;;;;;;;;;;-0.23;61.75;103083.91;5061965;28;20520;-61
2023/03/01 00:05:17;;;;;;;;;;;;;;;-0.25;61.84;103088.34;5050971;28;19913;-61
2023/03/01 00:07:42;;;;;;;;;;;;;;;-0.26;61.93;103077.94;5050191;28;20389;-61
2023/03/01 00:10:08;;;;;;;;;;;;;;;-0.29;61.93;103078.84;5056888;28;20388;-61
2023/03/01 00:12:33;;;;;;;;;;;;;;;-0.31;62.15;103075.44;5062417;28;19923;-61
2023/03/01 00:14:58;;;;;;;;;;;;;;;-0.36;62.19;103078.19;5051545;28;20012;-61
2023/03/01 00:17:23;;;;;;;;;;;;;;;-0.39;62.35;103078.28;5056368;28;19921;-61
2023/03/01 00:19:48;;;;;;;;;;;;;;;-0.41;62.35;103077.47;5053670;28;19948;-61
2023/03/01 00:22:13;;;;;;;;;;;;;;;-0.43;62.38;103076.66;5051514;28;19920;-61
2023/03/01 00:24:39;;;;;;;;;;;;;;;-0.45;62.26;103078.47;5054162;28;19962;-61
2023/03/01 00:27:04;;;;;;;;;;;;;;;-0.49;62.25;103079.47;5049291;28;19924;-61
2023/03/01 00:29:29;;;;;;;;;;;;;;;-0.51;62.54;103088.22;5050919;28;19924;-62
2023/03/01 00:31:54;;;;;;;;;;;;;;;-0.53;62.62;103085.66;5050826;28;19916;-61
2023/03/01 00:34:19;;;;;;;;;;;;;;;-0.55;62.63;103089.22;5051185;28;19920;-61
2023/03/01 00:36:45;;;;;;;;;;;;;;;-0.57;62.82;103083.19;5054273;28;19920;-61
2023/03/01 00:39:11;;;;;;;;;;;;;;;-0.56;63.04;103083.16;5053033;28;19970;-61
2023/03/01 00:41:37;;;;;;;;;;;;;;;-0.56;63.04;103075.31;5056145;28;19916;-61
2023/03/01 00:44:02;;;;;;;;;;;;;;;-0.55;63.05;103078.78;5055487;28;19917;-61
2023/03/01 00:46:29;;;;;;;;;;;;;;;-0.53;63.06;103079.59;5055313;28;20030;-61
2023/03/01 00:48:55;;;;;;;;;;;;;;;-0.52;63.09;103081.31;5055655;28;19912;-61
2023/03/01 00:51:25;;;;;;;;;;;;;;;-0.52;63.08;103076.09;5054452;28;19948;-62
2023/03/01 00:53:50;;;;;;;;;;;;;;;-0.54;63.28;103077.88;5055457;28;20382;-61
2023/03/01 00:56:16;;;;;;;;;;;;;;;-0.59;63.37;103070.16;5063949;28;19921;-61
2023/03/01 00:58:41;;;;;;;;;;;;;;;-0.63;63.45;103066.78;5064781;28;19917;-61
2023/03/01 01:01:16;;;;;;;;;;;;;;;-0.65;63.30;103062.50;5060554;28;19967;-61
2023/03/01 01:03:41;;;;;;;;;;;;;;;-0.66;63.42;103059.06;5057854;28;19916;-61
2023/03/01 01:06:12;;;;;;;;;;;;;;;-0.70;63.55;103057.44;5061054;28;20123;-61
2023/03/01 01:08:37;;;;;;;;;;;;;;;-0.73;63.48;103060.13;5053616;28;19924;-61
2023/03/01 01:11:02;;;;;;;;;;;;;;;-0.74;63.58;103066.25;5055492;28;19966;-61
2023/03/01 01:13:27;;;;;;;;;;;;;;;-0.75;63.61;103058.47;5048118;28;19924;-61
2023/03/01 01:15:53;;;;;;;;;;;;;;;-0.75;63.82;103058.47;5051821;28;20405;-61
2023/03/01 01:18:18;;;;;;;;;;;;;;;-0.78;63.81;103050.72;5052494;28;20015;-61
2023/03/01 01:20:43;;;;;;;;;;;;;;;-0.81;64.03;103043.00;5058379;28;20308;-61
2023/03/01 01:23:08;;;;;;;;;;;;;;;-0.84;64.11;103040.47;5055215;28;19967;-61
2023/03/01 01:25:34;;;;;;;;;;;;;;;-0.85;64.05;103036.16;5056196;28;20318;-61
2023/03/01 01:27:59;;;;;;;;;;;;;;;-0.88;64.12;103028.41;5058565;28;19925;-61
2023/03/01 01:30:24;;;;;;;;;;;;;;;-0.92;64.11;103027.63;5057624;28;19931;-61
2023/03/01 01:32:50;;;;;;;;;;;;;;;-0.91;63.87;103025.88;5056413;28;20302;-61
2023/03/01 01:35:15;;;;;;;;;;;;;;;-0.92;64.11;103025.03;5060414;28;19935;-61
2023/03/01 01:37:40;;;;;;;;;;;;;;;-0.92;64.22;103022.41;5051115;28;20503;-62
2023/03/01 01:40:06;;;;;;;;;;;;;;;-0.96;64.20;103012.97;5048686;28;19928;-62
2023/03/01 01:42:31;;;;;;;;;;;;;;;-0.97;64.21;103013.88;5049560;28;20007;-61
2023/03/01 01:45:15;;;;;;;;;;;;;;;-0.98;64.30;103009.56;5058851;28;19920;-61
2023/03/01 01:47:40;;;;;;;;;;;;;;;-0.98;64.41;103014.75;5058521;28;19932;-61
2023/03/01 01:50:11;;;;;;;;;;;;;;;-1.06;64.49;103001.09;5055787;28;19940;-61
2023/03/01 01:52:37;;;;;;;;;;;;;;;-1.00;64.51;103008.75;5052406;28;19920;-61
2023/03/01 01:55:05;;;;;;;;;;;;;;;-0.99;64.53;103003.47;5052798;28;19925;-61
2023/03/01 01:57:35;;;;;;;;;;;;;;;-1.00;64.62;103006.13;5051871;28;20034;-61
2023/03/01 02:00:03;;;;;;;;;;;;;;;-1.03;64.77;103001.88;5054433;28;19916;-61
2023/03/01 02:02:29;;;;;;;;;;;;;;;-1.04;64.96;103005.38;5052207;28;19916;-61
2023/03/01 02:04:58;;;;;;;;;;;;;;;-1.05;64.92;103001.06;5052751;28;19925;-61
2023/03/01 02:07:24;;;;;;;;;;;;;;;-1.07;64.79;103000.25;5052485;28;19932;-61
2023/03/01 02:09:51;;;;;;;;;;;;;;;-1.07;65.13;102988.97;5052656;28;19994;-61
2023/03/01 02:12:17;;;;;;;;;;;;;;;-1.08;65.13;102992.47;5053942;28;19920;-61
2023/03/01 02:14:42;;;;;;;;;;;;;;;-1.10;65.30;102982.06;5057362;28;19921;-61
2023/03/01 02:17:08;;;;;;;;;;;;;;;-1.10;65.29;102984.69;5057894;28;19922;-61
2023/03/01 02:19:48;;;;;;;;;;;;;;;-1.10;65.41;102983.84;5051922;28;19916;-61
2023/03/01 02:22:28;;;;;;;;;;;;;;;-1.08;65.48;102980.28;5052160;28;20362;-61
2023/03/01 02:25:00;;;;;;;;;;;;;;;-1.10;65.50;102982.06;5051987;28;20402;-61
2023/03/01 02:27:31;;;;;;;;;;;;;;;-1.10;65.69;102979.47;5055277;28;20391;-61
2023/03/01 02:29:56;;;;;;;;;;;;;;;-1.12;65.75;102985.63;5060050;28;19921;-61
2023/03/01 02:32:24;;;;;;;;;;;;;;;-1.15;65.82;102981.34;5053178;28;19927;-61
2023/03/01 02:34:51;;;;;;;;;;;;;;;-1.18;65.74;102975.34;5059605;28;19920;-61
2023/03/01 02:37:24;;;;;;;;;;;;;;;-1.21;65.58;102983.25;5052997;28;19943;-61
2023/03/01 02:39:51;;;;;;;;;;;;;;;-1.23;65.69;102980.69;5051160;28;19920;-61
2023/03/01 02:42:21;;;;;;;;;;;;;;;-1.19;65.81;102984.06;5051653;28;19921;-61
2023/03/01 02:44:46;;;;;;;;;;;;;;;-1.17;66.00;102983.13;5057853;28;19928;-61
2023/03/01 02:47:11;;;;;;;;;;;;;;;-1.16;65.94;102981.38;5055144;28;19916;-61
2023/03/01 02:49:36;;;;;;;;;;;;;;;-1.16;66.05;102984.84;5055127;28;20433;-61
2023/03/01 02:52:05;;;;;;;;;;;;;;;-1.15;66.24;102981.34;5052632;28;19913;-61
2023/03/01 02:54:39;;;;;;;;;;;;;;;-1.13;66.10;102982.16;5064793;28;19924;-61
2023/03/01 02:57:05;;;;;;;;;;;;;;;-1.12;66.29;102985.63;5055141;28;20043;-61
2023/03/01 02:59:32;;;;;;;;;;;;;;;-1.11;66.21;102982.97;5053256;28;20779;-61
2023/03/01 03:01:57;;;;;;;;;;;;;;;-1.10;66.23;102982.06;5062372;28;19960;-61
2023/03/01 03:04:22;;;;;;;;;;;;;;;-1.10;66.36;102981.22;5060171;28;19955;-61
2023/03/01 03:06:49;;;;;;;;;;;;;;;-1.09;66.30;102975.97;5056551;28;19916;-61
2023/03/01 03:09:14;;;;;;;;;;;;;;;-1.09;66.37;102967.28;5057227;28;19913;-61
2023/03/01 03:11:40;;;;;;;;;;;;;;;-1.08;66.49;102982.03;5055823;28;19917;-61
2023/03/01 03:14:12;;;;;;;;;;;;;;;-1.09;66.48;102983.78;5050174;28;20039;-61
2023/03/01 03:16:39;;;;;;;;;;;;;;;-1.10;66.59;102983.84;5064100;28;20492;-61
2023/03/01 03:19:04;;;;;;;;;;;;;;;-1.12;66.96;102978.66;5051913;28;19927;-61
2023/03/01 03:21:31;;;;;;;;;;;;;;;-1.13;66.62;102979.56;5054819;28;19924;-61
2023/03/01 03:23:56;;;;;;;;;;;;;;;-1.12;66.88;102972.59;5065762;28;20425;-61
2023/03/01 03:26:21;;;;;;;;;;;;;;;-1.14;66.75;102975.25;5067295;28;19967;-61
2023/03/01 03:28:46;;;;;;;;;;;;;;;-1.15;66.81;102976.16;5056919;28;19917;-61
2023/03/01 03:31:11;;;;;;;;;;;;;;;-1.18;66.80;102971.00;5054547;28;19924;-61
2023/03/01 03:33:37;;;;;;;;;;;;;;;-1.20;66.85;102975.38;5049865;28;19935;-61
2023/03/01 03:36:02;;;;;;;;;;;;;;;-1.24;66.91;102976.38;5053020;28;19970;-61
2023/03/01 03:38:27;;;;;;;;;;;;;;;-1.27;66.90;102972.09;5074059;28;19912;-61
2023/03/01 03:41:02;;;;;;;;;;;;;;;-1.29;66.86;102976.50;5066292;28;20037;-61
2023/03/01 03:43:28;;;;;;;;;;;;;;;-1.34;67.11;102972.31;5062322;28;19916;-61
2023/03/01 03:45:53;;;;;;;;;;;;;;;-1.38;67.09;102970.69;5060277;28;19917;-61
2023/03/01 03:48:19;;;;;;;;;;;;;;;-1.40;67.18;102965.53;5054942;28;19917;-61
2023/03/01 03:50:49;;;;;;;;;;;;;;;-1.42;67.30;102971.69;5051271;28;20003;-62
2023/03/01 03:53:14;;;;;;;;;;;;;;;-1.45;67.33;102962.16;5066000;28;20429;-61
2023/03/01 03:55:39;;;;;;;;;;;;;;;-1.46;67.36;102959.59;5054936;28;20020;-61
2023/03/01 03:58:09;;;;;;;;;;;;;;;-1.48;67.30;102964.00;5055375;28;19927;-61
2023/03/01 04:00:36;;;;;;;;;;;;;;;-1.52;67.03;102965.00;5052631;28;19946;-61
2023/03/01 04:03:01;;;;;;;;;;;;;;;-1.58;67.07;102960.81;5058555;28;20011;-61
2023/03/01 04:05:26;;;;;;;;;;;;;;;-1.64;67.14;102956.63;5062334;28;20003;-62
2023/03/01 04:08:00;;;;;;;;;;;;;;;-1.65;67.27;102954.06;5057534;28;20008;-61
2023/03/01 04:10:26;;;;;;;;;;;;;;;-1.66;67.27;102953.19;5055614;28;19924;-61
2023/03/01 04:12:52;;;;;;;;;;;;;;;-1.68;67.50;102944.56;5057013;28;20451;-61
2023/03/01 04:15:17;;;;;;;;;;;;;;;-1.71;67.43;102938.59;5058039;28;20371;-61
2023/03/01 04:17:44;;;;;;;;;;;;;;;-1.73;67.42;102940.38;5061421;28;20356;-61
2023/03/01 04:20:10;;;;;;;;;;;;;;;-1.72;67.69;102948.16;5053758;28;20003;-61
2023/03/01 04:22:36;;;;;;;;;;;;;;;-1.72;67.99;102948.16;5054007;28;19986;-61
2023/03/01 04:25:06;;;;;;;;;;;;;;;-1.70;68.11;102946.34;5057674;28;20397;-61
2023/03/01 04:27:32;;;;;;;;;;;;;;;-1.69;68.05;102936.78;5055583;28;20496;-61
2023/03/01 04:29:57;;;;;;;;;;;;;;;-1.66;68.21;102939.31;5058575;28;19920;-61
2023/03/01 04:32:23;;;;;;;;;;;;;;;-1.67;68.33;102933.25;5055924;28;19917;-61
2023/03/01 04:34:48;;;;;;;;;;;;;;;-1.67;68.37;102937.59;5050893;28;19928;-61
2023/03/01 04:37:15;;;;;;;;;;;;;;;-1.69;68.19;102936.78;5056692;28;20267;-62
2023/03/01 04:39:45;;;;;;;;;;;;;;;-1.69;68.31;102937.66;5052384;28;19916;-61
2023/03/01 04:42:10;;;;;;;;;;;;;;;-1.71;68.10;102931.63;5061831;28;19923;-61
2023/03/01 04:44:35;;;;;;;;;;;;;;;-1.73;68.26;102938.63;5060266;28;19921;-61
2023/03/01 04:47:01;;;;;;;;;;;;;;;-1.75;68.34;102937.78;5058048;28;19927;-61
2023/03/01 04:49:26;;;;;;;;;;;;;;;-1.77;68.32;102929.16;5061509;28;20596;-61
2023/03/01 04:51:51;;;;;;;;;;;;;;;-1.80;68.22;102920.56;5062812;28;20007;-62
2023/03/01 04:54:16;;;;;;;;;;;;;;;-1.81;68.26;102924.94;5062397;28;20520;-61
2023/03/01 04:56:41;;;;;;;;;;;;;;;-1.81;68.21;102921.47;5054904;28;20028;-61
2023/03/01 04:59:08;;;;;;;;;;;;;;;-1.80;68.14;102923.19;5051417;28;20384;-61
2023/03/01 05:01:35;;;;;;;;;;;;;;;-1.77;68.37;102928.31;5056099;28;19971;-61
2023/03/01 05:04:02;;;;;;;;;;;;;;;-1.77;68.52;102923.94;5056611;28;19920;-61
2023/03/01 05:06:28;;;;;;;;;;;;;;;-1.76;68.64;102915.25;5057545;28;19970;-61
2023/03/01 05:08:53;;;;;;;;;;;;;;;-1.75;68.58;102910.88;5055423;28;19925;-62
2023/03/01 05:11:18;;;;;;;;;;;;;;;-1.74;68.65;102918.66;5061903;28;19917;-61
2023/03/01 05:13:44;;;;;;;;;;;;;;;-1.75;68.77;102910.88;5051160;28;19967;-61
2023/03/01 05:16:12;;;;;;;;;;;;;;;-1.73;68.85;102901.31;5050662;28;19974;-61
2023/03/01 05:18:37;;;;;;;;;;;;;;;-1.75;68.87;102903.94;5056174;28;19960;-61
2023/03/01 05:21:05;;;;;;;;;;;;;;;-1.77;69.10;102903.13;5052747;28;19960;-61
2023/03/01 05:23:31;;;;;;;;;;;;;;;-1.79;69.14;102894.50;5056676;28;20394;-61
2023/03/01 05:26:00;;;;;;;;;;;;;;;-1.80;69.11;102891.94;5060222;28;19924;-60
2023/03/01 05:28:26;;;;;;;;;;;;;;;-1.83;69.27;102886.81;5057401;28;20377;-61
2023/03/01 05:30:51;;;;;;;;;;;;;;;-1.86;69.42;102885.13;5056100;28;19917;-61
2023/03/01 05:33:17;;;;;;;;;;;;;;;-1.86;69.35;102890.34;5059993;28;19928;-61
2023/03/01 05:35:42;;;;;;;;;;;;;;;-1.88;69.32;102882.56;5043690;28;19974;-61
2023/03/01 05:38:08;;;;;;;;;;;;;;;-1.89;69.47;102880.00;5048397;28;19913;-61
2023/03/01 05:40:33;;;;;;;;;;;;;;;-1.88;69.54;102873.91;5057335;28;19916;-61
2023/03/01 05:42:59;;;;;;;;;;;;;;;-1.90;69.45;102868.75;5055697;28;19917;-61
2023/03/01 05:45:25;;;;;;;;;;;;;;;-1.92;69.48;102867.09;5069244;28;19974;-61
2023/03/01 05:47:51;;;;;;;;;;;;;;;-1.94;69.65;102871.47;5064037;28;19913;-60
2023/03/01 05:50:20;;;;;;;;;;;;;;;-1.95;69.64;102867.16;5051121;28;19917;-61
2023/03/01 05:52:50;;;;;;;;;;;;;;;-1.97;69.83;102858.53;5059997;28;19912;-61
2023/03/01 05:55:19;;;;;;;;;;;;;;;-2.00;69.70;102867.28;5052877;28;19944;-61
2023/03/01 05:57:44;;;;;;;;;;;;;;;-2.02;69.75;102876.03;5053333;28;20309;-61
2023/03/01 06:00:10;;;;;;;;;;;;;;;-2.04;69.59;102876.03;5051613;28;19950;-61
2023/03/01 06:02:35;;;;;;;;;;;;;;;-2.04;69.76;102875.19;5047987;28;19916;-61
2023/03/01 06:05:01;;;;;;;;;;;;;;;-2.06;69.84;102876.97;5052557;28;19924;-61
2023/03/01 06:07:26;;;;;;;;;;;;;;;-2.05;70.07;102871.72;5048921;28;19932;-61
2023/03/01 06:09:51;;;;;;;;;;;;;;;-2.04;70.15;102876.03;5053559;28;20602;-61
2023/03/01 06:12:17;;;;;;;;;;;;;;;-2.04;70.10;102880.41;5049671;28;20409;-61
2023/03/01 06:14:42;;;;;;;;;;;;;;;-2.05;70.25;102876.94;5047501;28;19963;-61
2023/03/01 06:17:07;;;;;;;;;;;;;;;-2.07;70.44;102883.94;5053809;28;19995;-61
2023/03/01 06:19:32;;;;;;;;;;;;;;;-2.06;70.57;102875.22;5053903;28;19969;-61
2023/03/01 06:21:57;;;;;;;;;;;;;;;-2.06;70.60;102871.78;5050621;28;19912;-61
2023/03/01 06:24:23;;;;;;;;;;;;;;;-2.06;70.78;102874.38;5048234;28;20006;-61
2023/03/01 06:26:48;;;;;;;;;;;;;;;-2.07;70.91;102870.94;5055334;28;19916;-61
2023/03/01 06:29:14;;;;;;;;;;;;;;;-2.09;70.84;102877.91;5053901;28;19948;-61
2023/03/01 06:31:39;;;;;;;;;;;;;;;-2.11;70.88;102873.66;5052895;28;19994;-61
2023/03/01 06:34:04;;;;;;;;;;;;;;;-2.09;71.06;102877.06;5060525;28;19982;-61
2023/03/01 06:36:29;;;;;;;;;;;;;;;-2.08;71.08;102877.03;5058973;28;20022;-61
2023/03/01 06:38:55;;;;;;;;;;;;;;;-2.06;71.21;102874.38;5053825;28;19955;-61
2023/03/01 06:41:20;;;;;;;;;;;;;;;-2.06;71.27;102876.97;5051448;28;19912;-61
2023/03/01 06:43:45;;;;;;;;;;;;;;;-2.03;71.40;102879.50;5061713;28;19912;-61
2023/03/01 06:46:10;;;;;;;;;;;;;;;-2.03;71.31;102872.56;5059444;28;19913;-61
2023/03/01 06:48:35;;;;;;;;;;;;;;;-2.02;71.55;102882.09;5056709;28;19919;-61
2023/03/01 06:51:01;;;;;;;;;;;;;;;-1.99;71.57;102876.81;5051693;28;19917;-61
2023/03/01 06:53:27;;;;;;;;;;;;;;;-1.96;71.71;102883.69;5056935;28;19982;-61
2023/03/01 06:55:55;;;;;;;;;;;;;;;-1.95;71.98;102885.38;5051757;28;19999;-61
2023/03/01 06:58:21;;;;;;;;;;;;;;;-1.90;72.21;102880.91;5057183;28;19919;-61
2023/03/01 07:00:46;;;;;;;;;;;;;;;-1.81;72.36;102875.44;5050519;28;20329;-61
2023/03/01 07:03:11;;;;;;;;;;;;;;;-1.71;72.50;102874.31;5053443;28;19939;-61
2023/03/01 07:05:36;;;;;;;;;;;;;;;-1.59;72.66;102876.59;5054603;28;20378;-61
2023/03/01 07:08:01;;;;;;;;;;;;;;;-1.45;72.85;102873.56;5056714;28;19978;-61
2023/03/01 07:10:27;;;;;;;;;;;;;;;-1.29;73.02;102874.88;5051640;28;20501;-61
2023/03/01 07:12:54;;;;;;;;;;;;;;;-1.12;73.19;102881.34;5057749;28;19922;-61
2023/03/01 07:15:19;;;;;;;;;;;;;;;-0.95;73.30;102873.84;5058502;28;20544;-61
2023/03/01 07:17:47;;;;;;;;;;;;;;;-0.77;73.20;102872.44;5050451;28;20553;-61
2023/03/01 07:20:12;;;;;;;;;;;;;;;-0.58;73.08;102873.56;5047623;28;19917;-61
2023/03/01 07:22:39;;;;;;;;;;;;;;;-0.41;73.03;102866.06;5059294;28;19927;-61
2023/03/01 07:25:04;;;;;;;;;;;;;;;-0.23;72.84;102872.44;5064511;28;19917;-61
2023/03/01 07:27:29;;;;;;;;;;;;;;;-0.06;72.53;102871.84;5062354;28;19986;-61
2023/03/01 07:29:55;;;;;;;;;;;;;;;0.10;72.32;102869.59;5061958;28;19917;-61
2023/03/01 07:32:20;;;;;;;;;;;;;;;0.22;72.13;102874.38;5049848;28;20275;-61
2023/03/01 07:34:45;;;;;;;;;;;;;;;0.32;71.92;102877.53;5058398;28;19987;-61
2023/03/01 07:37:10;;;;;;;;;;;;;;;0.40;71.89;102878.09;5056258;28;20015;-61
2023/03/01 07:39:35;;;;;;;;;;;;;;;0.51;71.77;102878.56;5062736;28;19917;-61
2023/03/01 07:42:01;;;;;;;;;;;;;;;0.61;71.83;102879.94;5059524;28;20007;-61
2023/03/01 07:44:26;;;;;;;;;;;;;;;0.71;71.54;102886.53;5065852;28;20177;-61
2023/03/01 07:46:56;;;;;;;;;;;;;;;0.83;71.50;102885.22;5051470;28;19964;-61
2023/03/01 07:49:21;;;;;;;;;;;;;;;0.94;71.63;102883.06;5054610;28;20016;-61
2023/03/01 07:51:46;;;;;;;;;;;;;;;1.07;71.46;102880.81;5050280;28;20015;-61
2023/03/01 07:54:11;;;;;;;;;;;;;;;1.14;71.01;102879.66;5056324;28;19917;-61
2023/03/01 07:56:36;;;;;;;;;;;;;;;1.22;70.93;102873.22;5055837;28;19927;-61
2023/03/01 07:59:01;;;;;;;;;;;;;;;1.34;70.42;102879.75;5056250;28;19968;-61
2023/03/01 08:01:27;;;;;;;;;;;;;;;1.45;70.48;102874.09;5064894;28;19925;-61
2023/03/01 08:03:52;;;;;;;;;;;;;;;1.58;70.47;102883.13;5050458;28;19943;-61
2023/03/01 08:06:18;;;;;;;;;;;;;;;1.72;70.12;102883.41;5059088;28;19925;-62
2023/03/01 08:08:43;;;;;;;;;;;;;;;1.88;69.79;102882.78;5058749;28;19916;-61
2023/03/01 08:11:10;;;;;;;;;;;;;;;2.03;69.47;102890.03;5059486;28;19917;-61
2023/03/01 08:13:35;;;;;;;;;;;;;;;2.16;69.13;102893.81;5069496;28;19948;-61
2023/03/01 08:16:04;;;;;;;;;;;;;;;2.26;68.98;102889.00;5068221;28;19993;-62
2023/03/01 08:18:29;;;;;;;;;;;;;;;2.35;68.65;102893.88;5060999;28;20484;-61
2023/03/01 08:20:54;;;;;;;;;;;;;;;2.41;68.22;102888.34;5066747;28;20369;-62
2023/03/01 08:23:19;;;;;;;;;;;;;;;2.45;68.35;102889.91;5058471;28;20005;-62
2023/03/01 08:25:44;;;;;;;;;;;;;;;2.47;67.79;102886.31;5052381;28;20489;-61
2023/03/01 08:28:10;;;;;;;;;;;;;;;2.49;67.47;102889.72;5061343;28;19956;-62
2023/03/01 08:30:35;;;;;;;;;;;;;;;2.54;67.10;102889.50;5051488;28;20310;-62
2023/03/01 08:33:00;;;;;;;;;;;;;;;2.63;66.86;102881.25;5050902;28;19912;-62
2023/03/01 08:35:25;;;;;;;;;;;;;;;2.74;66.75;102876.34;5054425;28;19925;-61
2023/03/01 08:37:50;;;;;;;;;;;;;;;2.83;66.47;102877.69;5062002;28;19923;-61
2023/03/01 08:40:16;;;;;;;;;;;;;;;2.94;66.42;102871.97;5052771;28;19999;-61
2023/03/01 08:42:42;;;;;;;;;;;;;;;3.02;66.28;102868.06;5064012;28;19932;-61
2023/03/01 08:45:08;;;;;;;;;;;;;;;3.12;66.20;102873.72;5053571;28;20504;-61
2023/03/01 08:47:33;;;;;;;;;;;;;;;3.22;66.16;102863.66;5061387;28;20007;-61
2023/03/01 08:49:59;;;;;;;;;;;;;;;3.30;65.77;102867.59;5053595;28;19917;-61
2023/03/01 08:52:24;;;;;;;;;;;;;;;3.38;65.25;102867.22;5055061;28;20007;-62
2023/03/01 08:54:49;;;;;;;;;;;;;;;3.44;64.90;102859.03;5062638;28;20336;-61
2023/03/01 08:57:14;;;;;;;;;;;;;;;3.51;64.82;102857.00;5053377;28;19912;-61
2023/03/01 08:59:40;;;;;;;;;;;;;;;3.57;64.62;102859.31;5054158;28;19952;-61
2023/03/01 09:02:10;;;;;;;;;;;;;;;3.61;64.35;102852.97;5060078;28;19920;-61
2023/03/01 09:04:35;;;;;;;;;;;;;;;3.68;63.62;102852.59;5061495;28;19959;-62
2023/03/01 09:07:00;;;;;;;;;;;;;;;3.74;63.35;102851.41;5061904;28;19917;-61
2023/03/01 09:09:26;;;;;;;;;;;;;;;3.79;63.27;102844.19;5054785;28;20020;-62
2023/03/01 09:11:51;;;;;;;;;;;;;;;3.84;62.82;102849.19;5053711;28;19913;-61
2023/03/01 09:14:16;;;;;;;;;;;;;;;3.89;62.83;102848.03;5061644;28;20074;-61
2023/03/01 09:16:41;;;;;;;;;;;;;;;3.93;62.66;102839.06;5054792;28;19924;-61
2023/03/01 09:19:06;;;;;;;;;;;;;;;4.00;62.21;102831.69;5057525;28;20348;-62
2023/03/01 09:21:31;;;;;;;;;;;;;;;4.05;62.04;102834.97;5051763;28;19916;-61
2023/03/01 09:23:57;;;;;;;;;;;;;;;4.11;62.20;102832.00;5060108;28;19920;-61
2023/03/01 09:26:22;;;;;;;;;;;;;;;4.21;61.83;102827.13;5057117;28;20310;-62
2023/03/01 09:28:48;;;;;;;;;;;;;;;4.29;61.57;102830.19;5057442;28;19955;-62
2023/03/01 09:31:14;;;;;;;;;;;;;;;4.35;61.20;102819.34;5052521;28;20000;-62
2023/03/01 09:33:40;;;;;;;;;;;;;;;4.43;60.63;102811.91;5055751;28;20006;-62
2023/03/01 09:36:06;;;;;;;;;;;;;;;4.49;60.17;102806.31;5052548;28;19956;-61
2023/03/01 09:38:32;;;;;;;;;;;;;;;4.56;59.53;102806.81;5065520;28;19944;-62
2023/03/01 09:40:58;;;;;;;;;;;;;;;4.57;58.84;102804.09;5049171;28;20402;-61
2023/03/01 09:43:44;;;;;;;;;;;;;;;4.62;58.45;102799.44;5054284;28;19935;-62
2023/03/01 09:46:11;;;;;;;;;;;;;;;4.61;58.20;102804.78;5057561;28;19917;-61
2023/03/01 09:48:45;;;;;;;;;;;;;;;4.69;58.14;102796.47;5050376;28;19917;-61
2023/03/01 09:51:15;;;;;;;;;;;;;;;4.78;58.35;102788.06;5055408;28;19921;-61
2023/03/01 09:53:40;;;;;;;;;;;;;;;4.75;57.61;102794.34;5051360;28;20011;-61
2023/03/01 09:56:11;;;;;;;;;;;;;;;4.81;57.46;102798.44;5055232;28;20082;-60
2023/03/01 09:58:52;;;;;;;;;;;;;;;4.88;57.16;102797.13;5054549;28;19928;-60
2023/03/01 10:01:36;;;;;;;;;;;;;;;4.97;57.15;102788.75;5057227;28;20414;-60
2023/03/01 10:04:04;;;;;;;;;;;;;;;5.07;56.91;102784.66;5055148;28;20019;-60
2023/03/01 10:06:29;;;;;;;;;;;;;;;5.17;56.38;102771.78;5057836;28;20301;-60
2023/03/01 10:09:00;;;;;;;;;;;;;;;5.12;55.31;102779.97;5057615;28;19913;-60
2023/03/01 10:11:28;;;;;;;;;;;;;;;5.07;55.36;102784.66;5058450;28;19916;-60
2023/03/01 10:14:03;;;;;;;;;;;;;;;4.97;54.95;102776.44;5052980;28;19939;-60
2023/03/01 10:16:48;;;;;;;;;;;;;;;5.05;55.05;102770.72;5053994;28;19991;-60
2023/03/01 10:19:24;;;;;;;;;;;;;;;5.14;54.91;102772.81;5055963;28;19931;-60
2023/03/01 10:21:51;;;;;;;;;;;;;;;5.25;54.90;102764.31;5063129;28;19947;-60
2023/03/01 10:24:19;;;;;;;;;;;;;;;5.28;54.25;102764.16;5059765;28;19963;-60
2023/03/01 10:26:56;;;;;;;;;;;;;;;5.31;54.07;102763.13;5056244;28;20369;-59
2023/03/01 10:29:24;;;;;;;;;;;;;;;5.32;53.59;102764.81;5054734;28;19917;-59
2023/03/01 10:31:51;;;;;;;;;;;;;;;5.37;53.26;102760.13;5056796;28;20341;-60
2023/03/01 10:34:20;;;;;;;;;;;;;;;5.33;52.84;102753.34;5051842;28;19921;-60
2023/03/01 10:36:49;;;;;;;;;;;;;;;5.34;53.04;102753.25;5056903;28;19912;-60
2023/03/01 10:39:19;;;;;;;;;;;;;;;5.35;52.55;102752.31;5059946;28;19912;-60
2023/03/01 10:41:51;;;;;;;;;;;;;;;5.34;52.23;102745.34;5056031;28;19917;-60
2023/03/01 10:44:34;;;;;;;;;;;;;;;5.36;52.55;102751.38;5056532;28;19919;-60
2023/03/01 10:47:01;;;;;;;;;;;;;;;5.41;52.65;102751.09;5057311;28;19982;-60
2023/03/01 10:49:26;;;;;;;;;;;;;;;5.42;52.13;102742.25;5061092;28;19917;-60
2023/03/01 10:51:52;;;;;;;;;;;;;;;5.40;51.84;102736.22;5065545;28;19943;-60
2023/03/01 10:54:17;;;;;;;;;;;;;;;5.39;52.11;102739.78;5054094;28;19927;-60
2023/03/01 10:56:48;;;;;;;;;;;;;;;5.40;51.73;102744.97;5055739;28;19912;-60
2023/03/01 10:59:21;;;;;;;;;;;;;;;5.37;51.68;102728.50;5054928;28;19916;-60
2023/03/01 11:02:00;;;;;;;;;;;;;;;5.36;51.92;102734.72;5056040;28;20003;-60
2023/03/01 11:04:25;;;;;;;;;;;;;;;5.39;51.93;102734.53;5059437;28;20503;-60
2023/03/01 11:06:58;;;;;;;;;;;;;;;5.35;51.76;102730.38;5060148;28;19923;-60
2023/03/01 11:09:27;;;;;;;;;;;;;;;5.35;51.32;102728.59;5050194;28;19974;-60
2023/03/01 11:11:56;;;;;;;;;;;;;;;5.28;51.53;102728.13;5063173;28;19916;-60
2023/03/01 11:14:22;;;;;;;;;;;;;;;5.28;51.47;102720.22;5058077;28;19917;-60
2023/03/01 11:16:49;;;;;;;;;;;;;;;5.29;51.44;102726.31;5055186;28;20357;-60
2023/03/01 11:19:16;;;;;;;;;;;;;;;5.28;51.42;102722.84;5058456;28;19923;-60
2023/03/01 11:21:44;;;;;;;;;;;;;;;5.24;51.63;102729.22;5053822;28;19928;-60
2023/03/01 11:24:10;;;;;;;;;;;;;;;5.25;51.60;102730.94;5052571;28;19983;-60
2023/03/01 11:26:38;;;;;;;;;;;;;;;5.29;51.52;102731.59;5066097;28;19917;-60
2023/03/01 11:29:06;;;;;;;;;;;;;;;5.31;51.78;102731.50;5067235;28;19919;-60
2023/03/01 11:31:31;;;;;;;;;;;;;;;5.36;51.62;102725.03;5049496;28;19917;-60
2023/03/01 11:33:59;;;;;;;;;;;;;;;5.42;52.07;102719.38;5057601;28;20719;-61
2023/03/01 11:36:34;;;;;;;;;;;;;;;5.52;52.29;102717.91;5057748;28;19921;-60
2023/03/01 11:39:03;;;;;;;;;;;;;;;5.61;51.84;102711.25;5058807;28;19954;-60
2023/03/01 11:41:33;;;;;;;;;;;;;;;5.58;51.26;102712.28;5061282;28;20170;-60
2023/03/01 11:44:16;;;;;;;;;;;;;;;5.71;51.90;102700.97;5061657;28;19921;-60
2023/03/01 11:46:45;;;;;;;;;;;;;;;5.92;51.81;102704.97;5059605;28;19923;-60
2023/03/01 11:49:31;;;;;;;;;;;;;;;6.13;51.04;102710.72;5055728;28;19916;-60
2023/03/01 11:52:16;;;;;;;;;;;;;;;6.39;51.44;102703.81;5055262;28;19923;-60
2023/03/01 11:54:44;;;;;;;;;;;;;;;6.51;50.69;102705.66;5058314;28;19921;-60
2023/03/01 11:57:20;;;;;;;;;;;;;;;6.58;50.45;102701.66;5050623;28;19959;-60
2023/03/01 11:59:48;;;;;;;;;;;;;;;6.70;50.10;102700.03;5052075;28;19979;-60
2023/03/01 12:02:39;;;;;;;;;;;;;;;6.80;49.67;102701.13;5057063;28;20281;-60
2023/03/01 12:05:23;;;;;;;;;;;;;;;6.84;49.30;102705.25;5053051;28;19916;-59
2023/03/01 12:08:00;;;;;;;;;;;;;;;6.92;49.43;102700.31;5059872;28;19928;-60
2023/03/01 12:10:46;;;;;;;;;;;;;;;7.06;49.05;102699.41;5057223;28;19912;-60
2023/03/01 12:13:15;;;;;;;;;;;;;;;7.17;49.15;102698.69;5063708;28;19920;-60
2023/03/01 12:15:58;;;;;;;;;;;;;;;7.25;49.01;102691.94;5058176;28;20381;-60
2023/03/01 12:18:38;;;;;;;;;;;;;;;7.38;49.00;102681.38;5069222;28;19919;-60
2023/03/01 12:21:13;;;;;;;;;;;;;;;7.41;48.66;102681.16;5052361;28;19916;-60
2023/03/01 12:23:56;;;;;;;;;;;;;;;7.54;48.43;102679.38;5056215;28;20523;-60
2023/03/01 12:26:30;;;;;;;;;;;;;;;7.65;47.75;102678.63;5061142;28;20382;-60
2023/03/01 12:29:14;;;;;;;;;;;;;;;7.75;47.73;102672.59;5050614;28;19917;-60
2023/03/01 12:31:58;;;;;;;;;;;;;;;7.89;47.59;102674.28;5058196;28;19924;-60
2023/03/01 12:34:32;;;;;;;;;;;;;;;8.02;47.69;102664.50;5055683;28;19917;-60
2023/03/01 12:36:57;;;;;;;;;;;;;;;7.99;46.90;102670.03;5060302;28;19925;-60
2023/03/01 12:39:33;;;;;;;;;;;;;;;8.06;46.94;102662.50;5053937;28;19919;-60
2023/03/01 12:42:09;;;;;;;;;;;;;;;8.17;46.49;102661.75;5054266;28;19921;-60